Terminal Aerodrome Forecast
Issued by NWS

Home | Current Version | Previous Version | Graphics & Text | Print | Product List | Glossary On
Versions: 1 2 3 4 5 6 7 8 9 10 11 12 13
000
FTUS42 KMHX 191346 AAA
TAFOAJ
TAF AMD
KOAJ 191346Z 1914/2012 24012G22KT P6SM SKC
     FM192000 29012G25KT P6SM FEW050
     FM200000 34009KT P6SM SKC
      AMD LTD TO CLD VIS AND WIND=

USA.gov is the U.S. government's official web portal to all federal, state and local government web resources and services.